sensor_id;sensor_type;location;lat;lon;timestamp;temperature;humidity
44117;DHT22;29781;49.480;8.512;2023-04-15T00:00:05;7.00;99.90
44117;DHT22;29781;49.480;8.512;2023-04-15T00:02:31;6.90;99.90
44117;DHT22;29781;49.480;8.512;2023-04-15T00:04:56;7.10;99.90
44117;DHT22;29781;49.480;8.512;2023-04-15T00:07:22;7.50;99.90
44117;DHT22;29781;49.480;8.512;2023-04-15T00:09:47;7.80;99.90
44117;DHT22;29781;49.480;8.512;2023-04-15T00:12:13;8.10;99.90
44117;DHT22;29781;49.480;8.512;2023-04-15T00:14:38;8.30;99.90
44117;DHT22;29781;49.480;8.512;2023-04-15T00:17:04;8.50;99.90
44117;DHT22;29781;49.480;8.512;2023-04-15T00:19:30;8.50;99.90
44117;DHT22;29781;49.480;8.512;2023-04-15T00:21:56;8.40;99.90
44117;DHT22;29781;49.480;8.512;2023-04-15T00:24:22;8.40;99.90
44117;DHT22;29781;49.480;8.512;2023-04-15T00:26:48;8.20;99.90
44117;DHT22;29781;49.480;8.512;2023-04-15T00:29:14;8.40;99.90
44117;DHT22;29781;49.480;8.512;2023-04-15T00:31:39;8.40;99.90
44117;DHT22;29781;49.480;8.512;2023-04-15T00:34:05;8.20;99.90
44117;DHT22;29781;49.480;8.512;2023-04-15T00:36:30;8.10;99.90
44117;DHT22;29781;49.480;8.512;2023-04-15T00:38:58;7.70;99.90
44117;DHT22;29781;49.480;8.512;2023-04-15T00:41:23;7.50;99.90
44117;DHT22;29781;49.480;8.512;2023-04-15T00:43:49;7.40;99.90
44117;DHT22;29781;49.480;8.512;2023-04-15T00:46:16;7.50;99.90
44117;DHT22;29781;49.480;8.512;2023-04-15T00:48:43;7.10;99.90
44117;DHT22;29781;49.480;8.512;2023-04-15T00:51:09;7.10;99.90
44117;DHT22;29781;49.480;8.512;2023-04-15T00:53:35;7.10;99.90
44117;DHT22;29781;49.480;8.512;2023-04-15T00:56:00;7.10;99.90
44117;DHT22;29781;49.480;8.512;2023-04-15T00:58:26;7.10;99.90
44117;DHT22;29781;49.480;8.512;2023-04-15T01:00:53;7.20;99.90
44117;DHT22;29781;49.480;8.512;2023-04-15T01:03:19;7.20;99.90
44117;DHT22;29781;49.480;8.512;2023-04-15T01:05:45;7.10;99.90
44117;DHT22;29781;49.480;8.512;2023-04-15T01:08:11;6.90;99.90
44117;DHT22;29781;49.480;8.512;2023-04-15T01:10:37;6.10;99.90
44117;DHT22;29781;49.480;8.512;2023-04-15T01:13:03;5.60;99.90
44117;DHT22;29781;49.480;8.512;2023-04-15T01:15:28;5.50;99.90
44117;DHT22;29781;49.480;8.512;2023-04-15T01:17:54;5.80;99.90
44117;DHT22;29781;49.480;8.512;2023-04-15T01:20:20;6.00;99.90
44117;DHT22;29781;49.480;8.512;2023-04-15T01:22:47;5.90;99.90
44117;DHT22;29781;49.480;8.512;2023-04-15T01:25:17;5.90;99.90
44117;DHT22;29781;49.480;8.512;2023-04-15T01:27:43;6.10;99.90
44117;DHT22;29781;49.480;8.512;2023-04-15T01:30:10;6.30;99.90
44117;DHT22;29781;49.480;8.512;2023-04-15T01:32:36;6.10;99.90
44117;DHT22;29781;49.480;8.512;2023-04-15T01:35:01;6.00;99.90
44117;DHT22;29781;49.480;8.512;2023-04-15T01:37:27;6.10;99.90
44117;DHT22;29781;49.480;8.512;2023-04-15T01:39:53;6.20;99.90
44117;DHT22;29781;49.480;8.512;2023-04-15T01:42:20;6.40;99.90
44117;DHT22;29781;49.480;8.512;2023-04-15T01:44:46;6.70;99.90
44117;DHT22;29781;49.480;8.512;2023-04-15T01:47:11;7.00;99.90
44117;DHT22;29781;49.480;8.512;2023-04-15T01:49:37;7.30;99.90
44117;DHT22;29781;49.480;8.512;2023-04-15T01:52:03;7.50;99.90
44117;DHT22;29781;49.480;8.512;2023-04-15T01:54:28;7.50;99.90
44117;DHT22;29781;49.480;8.512;2023-04-15T01:56:54;7.40;99.90
44117;DHT22;29781;49.480;8.512;2023-04-15T01:59:19;7.10;99.90
44117;DHT22;29781;49.480;8.512;2023-04-15T02:01:45;7.30;99.90
44117;DHT22;29781;49.480;8.512;2023-04-15T02:04:10;7.40;99.90
44117;DHT22;29781;49.480;8.512;2023-04-15T02:06:44;7.50;99.90
44117;DHT22;29781;49.480;8.512;2023-04-15T02:09:10;7.10;99.90
44117;DHT22;29781;49.480;8.512;2023-04-15T02:11:36;6.80;99.90
44117;DHT22;29781;49.480;8.512;2023-04-15T02:14:02;6.30;99.90
44117;DHT22;29781;49.480;8.512;2023-04-15T02:16:31;5.90;99.90
44117;DHT22;29781;49.480;8.512;2023-04-15T02:18:58;5.60;99.90
44117;DHT22;29781;49.480;8.512;2023-04-15T02:21:25;5.50;99.90
44117;DHT22;29781;49.480;8.512;2023-04-15T02:23:51;5.30;99.90
44117;DHT22;29781;49.480;8.512;2023-04-15T02:26:18;5.40;99.90
44117;DHT22;29781;49.480;8.512;2023-04-15T02:28:44;5.40;99.90
44117;DHT22;29781;49.480;8.512;2023-04-15T02:31:09;5.30;99.90
44117;DHT22;29781;49.480;8.512;2023-04-15T02:33:35;5.40;99.90
44117;DHT22;29781;49.480;8.512;2023-04-15T02:36:02;5.40;99.90
44117;DHT22;29781;49.480;8.512;2023-04-15T02:38:27;5.60;99.90
44117;DHT22;29781;49.480;8.512;2023-04-15T02:40:53;5.90;99.90
44117;DHT22;29781;49.480;8.512;2023-04-15T02:43:19;6.10;99.90
44117;DHT22;29781;49.480;8.512;2023-04-15T02:45:45;6.50;99.90
44117;DHT22;29781;49.480;8.512;2023-04-15T02:48:11;6.60;99.90
44117;DHT22;29781;49.480;8.512;2023-04-15T02:50:37;6.80;99.90
44117;DHT22;29781;49.480;8.512;2023-04-15T02:53:06;7.00;99.90
44117;DHT22;29781;49.480;8.512;2023-04-15T02:55:31;7.00;99.90
44117;DHT22;29781;49.480;8.512;2023-04-15T02:57:57;7.10;99.90
44117;DHT22;29781;49.480;8.512;2023-04-15T03:00:26;7.10;99.90
44117;DHT22;29781;49.480;8.512;2023-04-15T03:03:03;6.70;99.90
44117;DHT22;29781;49.480;8.512;2023-04-15T03:05:29;6.30;99.90
44117;DHT22;29781;49.480;8.512;2023-04-15T03:07:54;6.20;99.90
44117;DHT22;29781;49.480;8.512;2023-04-15T03:10:20;5.90;99.90
44117;DHT22;29781;49.480;8.512;2023-04-15T03:12:46;5.60;99.90
44117;DHT22;29781;49.480;8.512;2023-04-15T03:15:12;5.10;99.90
44117;DHT22;29781;49.480;8.512;2023-04-15T03:17:37;5.20;99.90
44117;DHT22;29781;49.480;8.512;2023-04-15T03:20:04;5.20;99.90
44117;DHT22;29781;49.480;8.512;2023-04-15T03:22:31;5.20;99.90
44117;DHT22;29781;49.480;8.512;2023-04-15T03:24:57;5.30;99.90
44117;DHT22;29781;49.480;8.512;2023-04-15T03:27:22;5.30;99.90
44117;DHT22;29781;49.480;8.512;2023-04-15T03:29:48;5.40;99.90
44117;DHT22;29781;49.480;8.512;2023-04-15T03:32:14;5.50;99.90
44117;DHT22;29781;49.480;8.512;2023-04-15T03:34:40;5.40;99.90
44117;DHT22;29781;49.480;8.512;2023-04-15T03:37:06;5.10;99.90
44117;DHT22;29781;49.480;8.512;2023-04-15T03:39:31;5.00;99.90
44117;DHT22;29781;49.480;8.512;2023-04-15T03:42:00;5.10;99.90
44117;DHT22;29781;49.480;8.512;2023-04-15T03:44:27;5.20;99.90
44117;DHT22;29781;49.480;8.512;2023-04-15T03:46:53;5.20;99.90
44117;DHT22;29781;49.480;8.512;2023-04-15T03:49:19;5.20;99.90
44117;DHT22;29781;49.480;8.512;2023-04-15T03:51:45;5.20;99.90
44117;DHT22;29781;49.480;8.512;2023-04-15T03:54:10;5.10;99.90
44117;DHT22;29781;49.480;8.512;2023-04-15T03:56:37;4.90;99.90
44117;DHT22;29781;49.480;8.512;2023-04-15T03:59:02;5.00;99.90
44117;DHT22;29781;49.480;8.512;2023-04-15T04:01:28;5.10;99.90
44117;DHT22;29781;49.480;8.512;2023-04-15T04:03:54;5.10;99.90
44117;DHT22;29781;49.480;8.512;2023-04-15T04:06:19;5.00;99.90
44117;DHT22;29781;49.480;8.512;2023-04-15T04:08:45;5.00;99.90
44117;DHT22;29781;49.480;8.512;2023-04-15T04:11:10;5.00;99.90
44117;DHT22;29781;49.480;8.512;2023-04-15T04:13:36;5.00;99.90
44117;DHT22;29781;49.480;8.512;2023-04-15T04:16:01;5.00;99.90
44117;DHT22;29781;49.480;8.512;2023-04-15T04:18:29;5.00;99.90
44117;DHT22;29781;49.480;8.512;2023-04-15T04:20:55;4.90;99.90
44117;DHT22;29781;49.480;8.512;2023-04-15T04:23:21;4.80;99.90
44117;DHT22;29781;49.480;8.512;2023-04-15T04:25:46;4.80;99.90
44117;DHT22;29781;49.480;8.512;2023-04-15T04:28:12;4.90;99.90
44117;DHT22;29781;49.480;8.512;2023-04-15T04:30:38;5.20;99.90
44117;DHT22;29781;49.480;8.512;2023-04-15T04:33:04;5.60;99.90
44117;DHT22;29781;49.480;8.512;2023-04-15T04:35:29;5.40;99.90
44117;DHT22;29781;49.480;8.512;2023-04-15T04:37:55;5.40;99.90
44117;DHT22;29781;49.480;8.512;2023-04-15T04:40:20;5.50;99.90
44117;DHT22;29781;49.480;8.512;2023-04-15T04:42:46;5.70;99.90
44117;DHT22;29781;49.480;8.512;2023-04-15T04:45:12;5.50;99.90
44117;DHT22;29781;49.480;8.512;2023-04-15T04:47:37;5.60;99.90
44117;DHT22;29781;49.480;8.512;2023-04-15T04:50:03;5.50;99.90
44117;DHT22;29781;49.480;8.512;2023-04-15T04:52:29;5.40;99.90
44117;DHT22;29781;49.480;8.512;2023-04-15T04:54:54;5.40;99.90
44117;DHT22;29781;49.480;8.512;2023-04-15T04:57:20;5.40;99.90
44117;DHT22;29781;49.480;8.512;2023-04-15T04:59:45;5.10;99.90
44117;DHT22;29781;49.480;8.512;2023-04-15T05:02:11;4.90;99.90
44117;DHT22;29781;49.480;8.512;2023-04-15T05:04:36;4.80;99.90
44117;DHT22;29781;49.480;8.512;2023-04-15T05:07:02;4.80;99.90
44117;DHT22;29781;49.480;8.512;2023-04-15T05:09:27;4.70;99.90
44117;DHT22;29781;49.480;8.512;2023-04-15T05:11:54;4.80;99.90
44117;DHT22;29781;49.480;8.512;2023-04-15T05:14:20;4.90;99.90
44117;DHT22;29781;49.480;8.512;2023-04-15T05:16:46;4.90;99.90
44117;DHT22;29781;49.480;8.512;2023-04-15T05:19:11;4.90;99.90
44117;DHT22;29781;49.480;8.512;2023-04-15T05:21:37;5.10;99.90
44117;DHT22;29781;49.480;8.512;2023-04-15T05:24:03;5.00;99.90
44117;DHT22;29781;49.480;8.512;2023-04-15T05:26:28;4.90;99.90
44117;DHT22;29781;49.480;8.512;2023-04-15T05:28:54;4.80;99.90
44117;DHT22;29781;49.480;8.512;2023-04-15T05:31:19;4.80;99.90
44117;DHT22;29781;49.480;8.512;2023-04-15T05:33:45;4.80;99.90
44117;DHT22;29781;49.480;8.512;2023-04-15T05:36:10;4.90;99.90
44117;DHT22;29781;49.480;8.512;2023-04-15T05:38:36;5.20;99.90
44117;DHT22;29781;49.480;8.512;2023-04-15T05:41:02;5.30;99.90
44117;DHT22;29781;49.480;8.512;2023-04-15T05:43:27;5.40;99.90
44117;DHT22;29781;49.480;8.512;2023-04-15T05:45:53;5.60;99.90
44117;DHT22;29781;49.480;8.512;2023-04-15T05:48:18;5.70;99.90
44117;DHT22;29781;49.480;8.512;2023-04-15T05:50:44;5.70;99.90
44117;DHT22;29781;49.480;8.512;2023-04-15T05:53:09;5.70;99.90
44117;DHT22;29781;49.480;8.512;2023-04-15T05:55:36;5.80;99.90
44117;DHT22;29781;49.480;8.512;2023-04-15T05:58:01;6.00;99.90
44117;DHT22;29781;49.480;8.512;2023-04-15T06:00:28;6.10;99.90
44117;DHT22;29781;49.480;8.512;2023-04-15T06:02:54;6.10;99.90
44117;DHT22;29781;49.480;8.512;2023-04-15T06:05:20;6.30;99.90
44117;DHT22;29781;49.480;8.512;2023-04-15T06:07:45;6.40;99.90
44117;DHT22;29781;49.480;8.512;2023-04-15T06:10:11;6.50;99.90
44117;DHT22;29781;49.480;8.512;2023-04-15T06:12:36;6.50;99.90
44117;DHT22;29781;49.480;8.512;2023-04-15T06:15:02;6.60;99.90
44117;DHT22;29781;49.480;8.512;2023-04-15T06:17:28;6.60;99.90
44117;DHT22;29781;49.480;8.512;2023-04-15T06:19:53;6.70;99.90
44117;DHT22;29781;49.480;8.512;2023-04-15T06:22:23;6.80;99.90
44117;DHT22;29781;49.480;8.512;2023-04-15T06:24:49;6.90;99.90
44117;DHT22;29781;49.480;8.512;2023-04-15T06:27:16;6.60;99.90
44117;DHT22;29781;49.480;8.512;2023-04-15T06:29:41;6.60;99.90
44117;DHT22;29781;49.480;8.512;2023-04-15T06:32:07;6.50;99.90
44117;DHT22;29781;49.480;8.512;2023-04-15T06:34:32;6.40;99.90
44117;DHT22;29781;49.480;8.512;2023-04-15T06:36:58;6.40;99.90
44117;DHT22;29781;49.480;8.512;2023-04-15T06:39:23;6.50;99.90
44117;DHT22;29781;49.480;8.512;2023-04-15T06:41:49;6.80;99.90
44117;DHT22;29781;49.480;8.512;2023-04-15T06:44:15;7.10;99.90
44117;DHT22;29781;49.480;8.512;2023-04-15T06:46:40;7.20;99.90
44117;DHT22;29781;49.480;8.512;2023-04-15T06:49:06;7.30;99.90
44117;DHT22;29781;49.480;8.512;2023-04-15T06:51:34;7.50;99.90
44117;DHT22;29781;49.480;8.512;2023-04-15T06:54:00;7.50;99.90
44117;DHT22;29781;49.480;8.512;2023-04-15T06:56:26;7.40;99.90
44117;DHT22;29781;49.480;8.512;2023-04-15T06:58:52;7.40;99.90
44117;DHT22;29781;49.480;8.512;2023-04-15T07:01:18;7.40;99.90
44117;DHT22;29781;49.480;8.512;2023-04-15T07:03:44;7.50;99.90
44117;DHT22;29781;49.480;8.512;2023-04-15T07:06:09;7.60;99.90
44117;DHT22;29781;49.480;8.512;2023-04-15T07:08:35;7.60;99.90
44117;DHT22;29781;49.480;8.512;2023-04-15T07:11:00;7.70;99.90
44117;DHT22;29781;49.480;8.512;2023-04-15T07:13:26;7.80;99.90
44117;DHT22;29781;49.480;8.512;2023-04-15T07:15:52;7.90;99.90
44117;DHT22;29781;49.480;8.512;2023-04-15T07:18:17;8.00;99.90
44117;DHT22;29781;49.480;8.512;2023-04-15T07:20:43;8.10;99.90
44117;DHT22;29781;49.480;8.512;2023-04-15T07:23:08;8.00;99.90
44117;DHT22;29781;49.480;8.512;2023-04-15T07:25:34;7.80;99.90
44117;DHT22;29781;49.480;8.512;2023-04-15T07:27:59;7.80;99.90
44117;DHT22;29781;49.480;8.512;2023-04-15T07:30:26;7.90;99.90
44117;DHT22;29781;49.480;8.512;2023-04-15T07:32:52;8.00;99.90
44117;DHT22;29781;49.480;8.512;2023-04-15T07:35:18;8.00;99.90
44117;DHT22;29781;49.480;8.512;2023-04-15T07:37:46;8.00;99.90
44117;DHT22;29781;49.480;8.512;2023-04-15T07:40:11;8.00;99.90
44117;DHT22;29781;49.480;8.512;2023-04-15T07:42:38;8.00;99.90
44117;DHT22;29781;49.480;8.512;2023-04-15T07:45:04;8.00;99.90
44117;DHT22;29781;49.480;8.512;2023-04-15T07:47:30;8.10;99.90
44117;DHT22;29781;49.480;8.512;2023-04-15T07:49:56;8.40;99.90
44117;DHT22;29781;49.480;8.512;2023-04-15T07:52:22;8.70;99.90
44117;DHT22;29781;49.480;8.512;2023-04-15T07:54:47;8.70;99.90
44117;DHT22;29781;49.480;8.512;2023-04-15T07:57:13;8.60;99.90
44117;DHT22;29781;49.480;8.512;2023-04-15T07:59:38;8.80;99.90
44117;DHT22;29781;49.480;8.512;2023-04-15T08:02:04;8.70;99.90
44117;DHT22;29781;49.480;8.512;2023-04-15T08:04:29;8.70;99.90
44117;DHT22;29781;49.480;8.512;2023-04-15T08:06:55;8.70;99.90
44117;DHT22;29781;49.480;8.512;2023-04-15T08:09:20;8.60;99.90
44117;DHT22;29781;49.480;8.512;2023-04-15T08:11:48;8.80;99.90
44117;DHT22;29781;49.480;8.512;2023-04-15T08:14:14;8.90;99.90
44117;DHT22;29781;49.480;8.512;2023-04-15T08:16:39;9.00;99.90
44117;DHT22;29781;49.480;8.512;2023-04-15T08:19:05;9.70;99.90
44117;DHT22;29781;49.480;8.512;2023-04-15T08:21:31;10.50;99.90
44117;DHT22;29781;49.480;8.512;2023-04-15T08:23:57;10.80;99.90
44117;DHT22;29781;49.480;8.512;2023-04-15T08:26:22;10.20;99.90
44117;DHT22;29781;49.480;8.512;2023-04-15T08:28:48;10.00;99.90
44117;DHT22;29781;49.480;8.512;2023-04-15T08:31:15;10.10;99.90
44117;DHT22;29781;49.480;8.512;2023-04-15T08:33:41;9.90;99.90
44117;DHT22;29781;49.480;8.512;2023-04-15T08:36:06;9.90;99.90
44117;DHT22;29781;49.480;8.512;2023-04-15T08:38:33;10.10;99.90
44117;DHT22;29781;49.480;8.512;2023-04-15T08:41:03;10.00;99.90
44117;DHT22;29781;49.480;8.512;2023-04-15T08:43:33;10.20;99.90
44117;DHT22;29781;49.480;8.512;2023-04-15T08:45:59;10.30;99.90
44117;DHT22;29781;49.480;8.512;2023-04-15T08:48:28;10.60;99.90
44117;DHT22;29781;49.480;8.512;2023-04-15T08:50:56;11.00;99.90
44117;DHT22;29781;49.480;8.512;2023-04-15T08:53:23;11.40;99.90
44117;DHT22;29781;49.480;8.512;2023-04-15T08:55:51;11.30;99.90
44117;DHT22;29781;49.480;8.512;2023-04-15T08:58:18;11.90;99.90
44117;DHT22;29781;49.480;8.512;2023-04-15T09:00:44;12.10;99.90
44117;DHT22;29781;49.480;8.512;2023-04-15T09:03:10;12.30;99.90
44117;DHT22;29781;49.480;8.512;2023-04-15T09:05:36;13.20;99.90
44117;DHT22;29781;49.480;8.512;2023-04-15T09:08:02;12.50;99.90
44117;DHT22;29781;49.480;8.512;2023-04-15T09:10:28;12.20;99.90
44117;DHT22;29781;49.480;8.512;2023-04-15T09:12:55;12.30;99.90
44117;DHT22;29781;49.480;8.512;2023-04-15T09:15:24;12.50;99.90
44117;DHT22;29781;49.480;8.512;2023-04-15T09:17:49;12.50;99.90
44117;DHT22;29781;49.480;8.512;2023-04-15T09:20:15;12.80;99.90
44117;DHT22;29781;49.480;8.512;2023-04-15T09:22:45;13.40;99.90
44117;DHT22;29781;49.480;8.512;2023-04-15T09:27:49;13.10;99.90
44117;DHT22;29781;49.480;8.512;2023-04-15T09:30:15;13.70;99.90
44117;DHT22;29781;49.480;8.512;2023-04-15T09:32:58;14.10;99.90
44117;DHT22;29781;49.480;8.512;2023-04-15T09:35:25;14.20;99.90
44117;DHT22;29781;49.480;8.512;2023-04-15T09:37:52;14.60;99.90
44117;DHT22;29781;49.480;8.512;2023-04-15T09:43:00;15.10;99.90
44117;DHT22;29781;49.480;8.512;2023-04-15T09:45:27;14.30;99.90
44117;DHT22;29781;49.480;8.512;2023-04-15T09:47:52;14.20;99.90
44117;DHT22;29781;49.480;8.512;2023-04-15T09:50:18;13.80;99.90
44117;DHT22;29781;49.480;8.512;2023-04-15T09:52:45;13.70;99.90
44117;DHT22;29781;49.480;8.512;2023-04-15T09:55:12;13.70;99.90
44117;DHT22;29781;49.480;8.512;2023-04-15T09:57:38;14.00;99.90
44117;DHT22;29781;49.480;8.512;2023-04-15T10:00:07;14.10;99.90
44117;DHT22;29781;49.480;8.512;2023-04-15T10:02:34;13.90;99.90
44117;DHT22;29781;49.480;8.512;2023-04-15T10:05:01;13.70;99.90
44117;DHT22;29781;49.480;8.512;2023-04-15T10:07:27;13.70;99.90
44117;DHT22;29781;49.480;8.512;2023-04-15T10:09:54;13.50;99.90
44117;DHT22;29781;49.480;8.512;2023-04-15T10:12:21;13.50;99.90
44117;DHT22;29781;49.480;8.512;2023-04-15T10:14:55;13.50;99.90
44117;DHT22;29781;49.480;8.512;2023-04-15T10:17:22;13.70;99.90
44117;DHT22;29781;49.480;8.512;2023-04-15T10:19:48;14.20;99.90
44117;DHT22;29781;49.480;8.512;2023-04-15T10:22:15;14.60;99.90
44117;DHT22;29781;49.480;8.512;2023-04-15T10:24:42;14.50;99.90
44117;DHT22;29781;49.480;8.512;2023-04-15T10:27:09;14.50;99.90
44117;DHT22;29781;49.480;8.512;2023-04-15T10:29:35;14.80;99.90
44117;DHT22;29781;49.480;8.512;2023-04-15T10:32:02;14.60;99.90
44117;DHT22;29781;49.480;8.512;2023-04-15T10:34:28;14.30;99.90
44117;DHT22;29781;49.480;8.512;2023-04-15T10:37:03;14.00;99.90
44117;DHT22;29781;49.480;8.512;2023-04-15T10:39:44;13.80;99.90
44117;DHT22;29781;49.480;8.512;2023-04-15T10:42:10;13.60;99.90
44117;DHT22;29781;49.480;8.512;2023-04-15T10:44:37;14.30;99.90
44117;DHT22;29781;49.480;8.512;2023-04-15T10:47:14;15.10;99.90
44117;DHT22;29781;49.480;8.512;2023-04-15T10:49:44;15.40;99.90
44117;DHT22;29781;49.480;8.512;2023-04-15T10:52:11;14.90;99.90
44117;DHT22;29781;49.480;8.512;2023-04-15T10:54:37;14.40;99.90
44117;DHT22;29781;49.480;8.512;2023-04-15T10:59:29;14.30;99.90
44117;DHT22;29781;49.480;8.512;2023-04-15T11:02:00;14.30;99.90
44117;DHT22;29781;49.480;8.512;2023-04-15T11:04:55;14.30;99.90
44117;DHT22;29781;49.480;8.512;2023-04-15T11:12:52;13.80;99.90
44117;DHT22;29781;49.480;8.512;2023-04-15T11:15:32;13.50;99.90
44117;DHT22;29781;49.480;8.512;2023-04-15T11:20:37;13.90;99.90
44117;DHT22;29781;49.480;8.512;2023-04-15T11:23:04;13.90;99.90
44117;DHT22;29781;49.480;8.512;2023-04-15T11:25:32;13.70;99.90
44117;DHT22;29781;49.480;8.512;2023-04-15T11:27:59;13.60;99.90
44117;DHT22;29781;49.480;8.512;2023-04-15T11:30:28;13.60;99.90
44117;DHT22;29781;49.480;8.512;2023-04-15T11:32:58;13.30;99.90
44117;DHT22;29781;49.480;8.512;2023-04-15T11:35:24;13.20;99.90
44117;DHT22;29781;49.480;8.512;2023-04-15T11:37:50;13.30;99.90
44117;DHT22;29781;49.480;8.512;2023-04-15T11:40:21;13.60;99.90
44117;DHT22;29781;49.480;8.512;2023-04-15T11:42:46;13.50;99.90
44117;DHT22;29781;49.480;8.512;2023-04-15T11:45:30;13.60;99.90
44117;DHT22;29781;49.480;8.512;2023-04-15T11:48:11;13.70;99.90
44117;DHT22;29781;49.480;8.512;2023-04-15T11:50:38;13.70;99.90
44117;DHT22;29781;49.480;8.512;2023-04-15T11:53:07;13.60;99.90
44117;DHT22;29781;49.480;8.512;2023-04-15T11:55:52;13.60;99.90
44117;DHT22;29781;49.480;8.512;2023-04-15T11:58:23;13.60;99.90
44117;DHT22;29781;49.480;8.512;2023-04-15T12:03:20;14.10;99.90
44117;DHT22;29781;49.480;8.512;2023-04-15T12:11:55;14.10;99.90
44117;DHT22;29781;49.480;8.512;2023-04-15T12:14:26;14.20;99.90
44117;DHT22;29781;49.480;8.512;2023-04-15T12:16:56;14.20;99.90
44117;DHT22;29781;49.480;8.512;2023-04-15T12:19:24;13.90;99.90
44117;DHT22;29781;49.480;8.512;2023-04-15T12:21:52;14.00;99.90
44117;DHT22;29781;49.480;8.512;2023-04-15T12:24:21;13.80;99.90
44117;DHT22;29781;49.480;8.512;2023-04-15T12:26:57;13.70;99.90
44117;DHT22;29781;49.480;8.512;2023-04-15T12:29:28;13.70;99.90
44117;DHT22;29781;49.480;8.512;2023-04-15T12:32:03;13.80;99.90
44117;DHT22;29781;49.480;8.512;2023-04-15T12:34:31;13.90;99.90
44117;DHT22;29781;49.480;8.512;2023-04-15T12:36:58;14.00;99.90
44117;DHT22;29781;49.480;8.512;2023-04-15T12:39:27;14.10;99.90
44117;DHT22;29781;49.480;8.512;2023-04-15T12:41:53;14.20;99.90
44117;DHT22;29781;49.480;8.512;2023-04-15T12:44:21;14.10;99.90
44117;DHT22;29781;49.480;8.512;2023-04-15T12:46:47;13.90;99.90
44117;DHT22;29781;49.480;8.512;2023-04-15T12:49:12;14.10;99.90
44117;DHT22;29781;49.480;8.512;2023-04-15T12:51:44;14.30;99.90
44117;DHT22;29781;49.480;8.512;2023-04-15T12:54:09;14.30;99.90
44117;DHT22;29781;49.480;8.512;2023-04-15T12:56:35;14.10;99.10
44117;DHT22;29781;49.480;8.512;2023-04-15T12:59:01;13.80;97.60
44117;DHT22;29781;49.480;8.512;2023-04-15T13:01:27;14.00;99.10
44117;DHT22;29781;49.480;8.512;2023-04-15T13:03:52;14.10;98.60
44117;DHT22;29781;49.480;8.512;2023-04-15T13:06:18;14.10;96.90
44117;DHT22;29781;49.480;8.512;2023-04-15T13:08:43;14.20;96.60
44117;DHT22;29781;49.480;8.512;2023-04-15T13:11:09;14.40;96.60
44117;DHT22;29781;49.480;8.512;2023-04-15T13:13:35;14.60;96.20
44117;DHT22;29781;49.480;8.512;2023-04-15T13:16:00;14.60;96.30
44117;DHT22;29781;49.480;8.512;2023-04-15T13:18:26;14.60;95.80
44117;DHT22;29781;49.480;8.512;2023-04-15T13:20:53;14.30;97.30
44117;DHT22;29781;49.480;8.512;2023-04-15T13:23:18;14.10;96.80
44117;DHT22;29781;49.480;8.512;2023-04-15T13:25:46;14.10;98.40
44117;DHT22;29781;49.480;8.512;2023-04-15T13:28:12;14.20;98.30
44117;DHT22;29781;49.480;8.512;2023-04-15T13:30:38;14.20;97.60
44117;DHT22;29781;49.480;8.512;2023-04-15T13:33:04;14.10;98.30
44117;DHT22;29781;49.480;8.512;2023-04-15T13:35:31;14.00;98.90
44117;DHT22;29781;49.480;8.512;2023-04-15T13:37:56;13.90;99.60
44117;DHT22;29781;49.480;8.512;2023-04-15T13:40:22;14.00;99.90
44117;DHT22;29781;49.480;8.512;2023-04-15T13:42:48;14.10;99.90
44117;DHT22;29781;49.480;8.512;2023-04-15T13:45:13;14.10;99.90
44117;DHT22;29781;49.480;8.512;2023-04-15T13:47:39;14.00;99.90
44117;DHT22;29781;49.480;8.512;2023-04-15T13:50:05;14.20;99.90
44117;DHT22;29781;49.480;8.512;2023-04-15T13:52:31;14.20;99.90
44117;DHT22;29781;49.480;8.512;2023-04-15T13:54:57;14.30;99.90
44117;DHT22;29781;49.480;8.512;2023-04-15T13:57:22;14.40;99.90
44117;DHT22;29781;49.480;8.512;2023-04-15T13:59:49;14.20;99.90
44117;DHT22;29781;49.480;8.512;2023-04-15T14:02:14;14.10;99.90
44117;DHT22;29781;49.480;8.512;2023-04-15T14:04:40;14.10;99.90
44117;DHT22;29781;49.480;8.512;2023-04-15T14:07:06;14.10;99.90
44117;DHT22;29781;49.480;8.512;2023-04-15T14:09:31;14.00;99.90
44117;DHT22;29781;49.480;8.512;2023-04-15T14:11:57;13.70;99.90
44117;DHT22;29781;49.480;8.512;2023-04-15T14:14:24;13.50;99.90
44117;DHT22;29781;49.480;8.512;2023-04-15T14:16:50;13.10;99.90
44117;DHT22;29781;49.480;8.512;2023-04-15T14:19:15;12.70;99.90
44117;DHT22;29781;49.480;8.512;2023-04-15T14:21:41;12.70;99.90
44117;DHT22;29781;49.480;8.512;2023-04-15T14:24:06;12.70;99.90
44117;DHT22;29781;49.480;8.512;2023-04-15T14:26:32;12.60;99.90
44117;DHT22;29781;49.480;8.512;2023-04-15T14:28:57;12.40;99.90
44117;DHT22;29781;49.480;8.512;2023-04-15T14:31:23;12.30;99.90
44117;DHT22;29781;49.480;8.512;2023-04-15T14:33:48;12.10;99.90
44117;DHT22;29781;49.480;8.512;2023-04-15T14:36:14;12.10;99.90
44117;DHT22;29781;49.480;8.512;2023-04-15T14:38:40;12.20;99.90
44117;DHT22;29781;49.480;8.512;2023-04-15T14:41:06;12.20;99.90
44117;DHT22;29781;49.480;8.512;2023-04-15T14:43:32;12.10;99.90
44117;DHT22;29781;49.480;8.512;2023-04-15T14:45:58;11.70;99.90
44117;DHT22;29781;49.480;8.512;2023-04-15T14:48:24;11.80;99.90
44117;DHT22;29781;49.480;8.512;2023-04-15T14:50:53;12.00;99.90
44117;DHT22;29781;49.480;8.512;2023-04-15T14:53:18;12.10;99.90
44117;DHT22;29781;49.480;8.512;2023-04-15T14:55:44;11.90;99.90
44117;DHT22;29781;49.480;8.512;2023-04-15T14:58:10;11.90;99.90
44117;DHT22;29781;49.480;8.512;2023-04-15T15:00:37;12.00;99.90
44117;DHT22;29781;49.480;8.512;2023-04-15T15:03:04;12.00;99.90
44117;DHT22;29781;49.480;8.512;2023-04-15T15:05:37;12.10;99.90
44117;DHT22;29781;49.480;8.512;2023-04-15T15:08:02;12.00;99.90
44117;DHT22;29781;49.480;8.512;2023-04-15T15:10:28;11.70;99.90
44117;DHT22;29781;49.480;8.512;2023-04-15T15:12:54;11.50;99.90
44117;DHT22;29781;49.480;8.512;2023-04-15T15:15:19;11.50;99.90
44117;DHT22;29781;49.480;8.512;2023-04-15T15:17:45;11.50;99.90
44117;DHT22;29781;49.480;8.512;2023-04-15T15:20:10;11.70;99.90
44117;DHT22;29781;49.480;8.512;2023-04-15T15:22:36;11.70;99.90
44117;DHT22;29781;49.480;8.512;2023-04-15T15:25:01;11.70;99.90
44117;DHT22;29781;49.480;8.512;2023-04-15T15:27:27;11.60;99.90
44117;DHT22;29781;49.480;8.512;2023-04-15T15:29:52;11.50;99.90
44117;DHT22;29781;49.480;8.512;2023-04-15T15:32:18;11.50;99.90
44117;DHT22;29781;49.480;8.512;2023-04-15T15:34:43;11.30;99.90
44117;DHT22;29781;49.480;8.512;2023-04-15T15:37:09;11.40;99.90
44117;DHT22;29781;49.480;8.512;2023-04-15T15:39:35;11.40;99.90
44117;DHT22;29781;49.480;8.512;2023-04-15T15:42:00;11.20;99.90
44117;DHT22;29781;49.480;8.512;2023-04-15T15:44:26;11.30;99.90
44117;DHT22;29781;49.480;8.512;2023-04-15T15:46:51;11.20;99.90
44117;DHT22;29781;49.480;8.512;2023-04-15T15:49:17;11.10;99.90
44117;DHT22;29781;49.480;8.512;2023-04-15T15:51:44;11.10;99.90
44117;DHT22;29781;49.480;8.512;2023-04-15T15:54:10;10.90;99.90
44117;DHT22;29781;49.480;8.512;2023-04-15T15:56:35;10.90;99.90
44117;DHT22;29781;49.480;8.512;2023-04-15T15:59:02;10.90;99.90